sensor_id;sensor_type;location;lat;lon;timestamp;temperature;humidity
75931;DHT22;64609;47.052;15.462;2023-04-04T00:00:12;8.00;33.80
75931;DHT22;64609;47.052;15.462;2023-04-04T00:02:38;7.90;33.90
75931;DHT22;64609;47.052;15.462;2023-04-04T00:05:05;7.90;34.10
75931;DHT22;64609;47.052;15.462;2023-04-04T00:07:30;7.80;34.10
75931;DHT22;64609;47.052;15.462;2023-04-04T00:09:56;7.80;34.40
75931;DHT22;64609;47.052;15.462;2023-04-04T00:12:22;7.70;34.80
75931;DHT22;64609;47.052;15.462;2023-04-04T00:14:49;7.70;34.60
75931;DHT22;64609;47.052;15.462;2023-04-04T00:17:15;7.70;34.80
75931;DHT22;64609;47.052;15.462;2023-04-04T00:19:41;7.60;35.20
75931;DHT22;64609;47.052;15.462;2023-04-04T00:22:06;7.60;35.10
75931;DHT22;64609;47.052;15.462;2023-04-04T00:24:33;7.50;35.10
75931;DHT22;64609;47.052;15.462;2023-04-04T00:26:59;7.40;35.40
75931;DHT22;64609;47.052;15.462;2023-04-04T00:29:24;7.30;35.50
75931;DHT22;64609;47.052;15.462;2023-04-04T00:31:50;7.30;35.30
75931;DHT22;64609;47.052;15.462;2023-04-04T00:34:15;7.30;35.20
75931;DHT22;64609;47.052;15.462;2023-04-04T00:36:41;7.20;35.40
75931;DHT22;64609;47.052;15.462;2023-04-04T00:39:07;7.10;35.80
75931;DHT22;64609;47.052;15.462;2023-04-04T00:41:33;7.00;36.00
75931;DHT22;64609;47.052;15.462;2023-04-04T00:44:00;6.90;36.30
75931;DHT22;64609;47.052;15.462;2023-04-04T00:46:26;6.90;36.60
75931;DHT22;64609;47.052;15.462;2023-04-04T00:48:53;6.90;37.00
75931;DHT22;64609;47.052;15.462;2023-04-04T00:51:19;6.90;37.00
75931;DHT22;64609;47.052;15.462;2023-04-04T00:53:46;6.90;37.10
75931;DHT22;64609;47.052;15.462;2023-04-04T00:56:13;6.80;37.10
75931;DHT22;64609;47.052;15.462;2023-04-04T00:58:40;6.80;36.90
75931;DHT22;64609;47.052;15.462;2023-04-04T01:01:07;6.80;36.90
75931;DHT22;64609;47.052;15.462;2023-04-04T01:03:32;6.80;37.10
75931;DHT22;64609;47.052;15.462;2023-04-04T01:05:59;6.80;37.00
75931;DHT22;64609;47.052;15.462;2023-04-04T01:08:25;6.70;37.10
75931;DHT22;64609;47.052;15.462;2023-04-04T01:10:52;6.60;37.30
75931;DHT22;64609;47.052;15.462;2023-04-04T01:13:18;6.60;37.40
75931;DHT22;64609;47.052;15.462;2023-04-04T01:15:44;6.60;37.50
75931;DHT22;64609;47.052;15.462;2023-04-04T01:18:13;6.60;37.70
75931;DHT22;64609;47.052;15.462;2023-04-04T01:21:01;6.60;37.70
75931;DHT22;64609;47.052;15.462;2023-04-04T01:23:53;6.60;37.90
75931;DHT22;64609;47.052;15.462;2023-04-04T01:26:23;6.60;38.10
75931;DHT22;64609;47.052;15.462;2023-04-04T01:28:48;6.50;38.00
75931;DHT22;64609;47.052;15.462;2023-04-04T01:31:18;6.50;37.80
75931;DHT22;64609;47.052;15.462;2023-04-04T01:33:52;6.40;38.10
75931;DHT22;64609;47.052;15.462;2023-04-04T01:36:28;6.40;38.40
75931;DHT22;64609;47.052;15.462;2023-04-04T01:39:04;6.40;38.30
75931;DHT22;64609;47.052;15.462;2023-04-04T01:41:33;6.40;38.50
75931;DHT22;64609;47.052;15.462;2023-04-04T01:44:00;6.40;38.70
75931;DHT22;64609;47.052;15.462;2023-04-04T01:46:26;6.40;38.70
75931;DHT22;64609;47.052;15.462;2023-04-04T01:48:52;6.30;38.90
75931;DHT22;64609;47.052;15.462;2023-04-04T01:51:18;6.30;39.00
75931;DHT22;64609;47.052;15.462;2023-04-04T01:53:43;6.30;39.00
75931;DHT22;64609;47.052;15.462;2023-04-04T01:56:09;6.30;39.30
75931;DHT22;64609;47.052;15.462;2023-04-04T01:58:35;6.30;39.40
75931;DHT22;64609;47.052;15.462;2023-04-04T02:01:00;6.30;39.40
75931;DHT22;64609;47.052;15.462;2023-04-04T02:03:26;6.20;39.20
75931;DHT22;64609;47.052;15.462;2023-04-04T02:05:51;6.30;39.10
75931;DHT22;64609;47.052;15.462;2023-04-04T02:08:18;6.20;39.20
75931;DHT22;64609;47.052;15.462;2023-04-04T02:10:44;6.20;39.20
75931;DHT22;64609;47.052;15.462;2023-04-04T02:13:10;6.20;39.20
75931;DHT22;64609;47.052;15.462;2023-04-04T02:15:36;6.20;39.00
75931;DHT22;64609;47.052;15.462;2023-04-04T02:18:02;6.20;38.90
75931;DHT22;64609;47.052;15.462;2023-04-04T02:20:28;6.20;38.70
75931;DHT22;64609;47.052;15.462;2023-04-04T02:22:54;6.20;39.00
75931;DHT22;64609;47.052;15.462;2023-04-04T02:25:21;6.10;39.00
75931;DHT22;64609;47.052;15.462;2023-04-04T02:27:47;6.20;38.90
75931;DHT22;64609;47.052;15.462;2023-04-04T02:30:13;6.20;38.90
75931;DHT22;64609;47.052;15.462;2023-04-04T02:32:39;6.20;38.90
75931;DHT22;64609;47.052;15.462;2023-04-04T02:35:05;6.20;39.00
75931;DHT22;64609;47.052;15.462;2023-04-04T02:37:31;6.20;38.90
75931;DHT22;64609;47.052;15.462;2023-04-04T02:39:57;6.20;38.50
75931;DHT22;64609;47.052;15.462;2023-04-04T02:42:22;6.20;38.30
75931;DHT22;64609;47.052;15.462;2023-04-04T02:44:48;6.20;38.60
75931;DHT22;64609;47.052;15.462;2023-04-04T02:47:13;6.20;38.50
75931;DHT22;64609;47.052;15.462;2023-04-04T02:49:39;6.30;38.30
75931;DHT22;64609;47.052;15.462;2023-04-04T02:52:04;6.20;38.30
75931;DHT22;64609;47.052;15.462;2023-04-04T02:54:30;6.30;38.10
75931;DHT22;64609;47.052;15.462;2023-04-04T02:56:57;6.30;38.00
75931;DHT22;64609;47.052;15.462;2023-04-04T02:59:23;6.30;37.80
75931;DHT22;64609;47.052;15.462;2023-04-04T03:01:48;6.30;37.80
75931;DHT22;64609;47.052;15.462;2023-04-04T03:04:14;6.30;37.80
75931;DHT22;64609;47.052;15.462;2023-04-04T03:06:39;6.30;37.80
75931;DHT22;64609;47.052;15.462;2023-04-04T03:09:06;6.30;37.90
75931;DHT22;64609;47.052;15.462;2023-04-04T03:11:31;6.30;38.10
75931;DHT22;64609;47.052;15.462;2023-04-04T03:13:57;6.30;38.10
75931;DHT22;64609;47.052;15.462;2023-04-04T03:16:23;6.30;38.10
75931;DHT22;64609;47.052;15.462;2023-04-04T03:18:48;6.30;38.30
75931;DHT22;64609;47.052;15.462;2023-04-04T03:21:14;6.30;38.20
75931;DHT22;64609;47.052;15.462;2023-04-04T03:23:41;6.30;38.10
75931;DHT22;64609;47.052;15.462;2023-04-04T03:26:07;6.20;38.20
75931;DHT22;64609;47.052;15.462;2023-04-04T03:28:33;6.20;38.40
75931;DHT22;64609;47.052;15.462;2023-04-04T03:31:03;6.20;38.50
75931;DHT22;64609;47.052;15.462;2023-04-04T03:33:30;6.20;38.40
75931;DHT22;64609;47.052;15.462;2023-04-04T03:35:57;6.20;38.60
75931;DHT22;64609;47.052;15.462;2023-04-04T03:38:23;6.20;38.50
75931;DHT22;64609;47.052;15.462;2023-04-04T03:41:00;6.20;38.30
75931;DHT22;64609;47.052;15.462;2023-04-04T03:43:26;6.20;38.40
75931;DHT22;64609;47.052;15.462;2023-04-04T03:45:52;6.10;38.40
75931;DHT22;64609;47.052;15.462;2023-04-04T03:48:19;6.10;38.40
75931;DHT22;64609;47.052;15.462;2023-04-04T03:50:45;6.20;38.10
75931;DHT22;64609;47.052;15.462;2023-04-04T03:53:14;6.20;38.00
75931;DHT22;64609;47.052;15.462;2023-04-04T03:55:40;6.30;37.60
75931;DHT22;64609;47.052;15.462;2023-04-04T03:58:06;6.30;37.50
75931;DHT22;64609;47.052;15.462;2023-04-04T04:00:32;6.40;37.30
75931;DHT22;64609;47.052;15.462;2023-04-04T04:02:58;6.40;37.20
75931;DHT22;64609;47.052;15.462;2023-04-04T04:05:23;6.40;38.00
75931;DHT22;64609;47.052;15.462;2023-04-04T04:07:49;6.40;37.00
75931;DHT22;64609;47.052;15.462;2023-04-04T04:10:14;6.40;37.10
75931;DHT22;64609;47.052;15.462;2023-04-04T04:12:41;6.40;37.60
75931;DHT22;64609;47.052;15.462;2023-04-04T04:15:07;6.30;37.60
75931;DHT22;64609;47.052;15.462;2023-04-04T04:17:33;6.30;37.70
75931;DHT22;64609;47.052;15.462;2023-04-04T04:19:58;6.20;37.90
75931;DHT22;64609;47.052;15.462;2023-04-04T04:22:24;6.20;37.90
75931;DHT22;64609;47.052;15.462;2023-04-04T04:24:50;6.10;38.10
75931;DHT22;64609;47.052;15.462;2023-04-04T04:27:16;6.10;38.10
75931;DHT22;64609;47.052;15.462;2023-04-04T04:29:41;6.10;38.40
75931;DHT22;64609;47.052;15.462;2023-04-04T04:32:07;6.00;39.40
75931;DHT22;64609;47.052;15.462;2023-04-04T04:34:32;6.00;38.60
75931;DHT22;64609;47.052;15.462;2023-04-04T04:36:58;6.00;38.90
75931;DHT22;64609;47.052;15.462;2023-04-04T04:39:24;6.00;38.90
75931;DHT22;64609;47.052;15.462;2023-04-04T04:41:49;5.90;38.90
75931;DHT22;64609;47.052;15.462;2023-04-04T04:44:15;5.90;39.20
75931;DHT22;64609;47.052;15.462;2023-04-04T04:46:40;5.90;39.40
75931;DHT22;64609;47.052;15.462;2023-04-04T04:49:06;5.80;39.30
75931;DHT22;64609;47.052;15.462;2023-04-04T04:51:32;5.80;39.40
75931;DHT22;64609;47.052;15.462;2023-04-04T04:53:57;5.80;39.70
75931;DHT22;64609;47.052;15.462;2023-04-04T04:56:23;5.80;39.70
75931;DHT22;64609;47.052;15.462;2023-04-04T04:58:48;5.80;39.60
75931;DHT22;64609;47.052;15.462;2023-04-04T05:01:15;5.80;39.70
75931;DHT22;64609;47.052;15.462;2023-04-04T05:03:40;5.80;39.90
75931;DHT22;64609;47.052;15.462;2023-04-04T05:06:06;5.80;40.20
75931;DHT22;64609;47.052;15.462;2023-04-04T05:08:32;5.80;40.20
75931;DHT22;64609;47.052;15.462;2023-04-04T05:10:57;5.70;40.20
75931;DHT22;64609;47.052;15.462;2023-04-04T05:13:23;5.80;40.20
75931;DHT22;64609;47.052;15.462;2023-04-04T05:15:49;5.80;40.40
75931;DHT22;64609;47.052;15.462;2023-04-04T05:18:15;5.80;40.20
75931;DHT22;64609;47.052;15.462;2023-04-04T05:20:41;5.80;40.10
75931;DHT22;64609;47.052;15.462;2023-04-04T05:23:07;5.80;40.10
75931;DHT22;64609;47.052;15.462;2023-04-04T05:25:33;5.70;40.50
75931;DHT22;64609;47.052;15.462;2023-04-04T05:27:58;5.70;40.60
75931;DHT22;64609;47.052;15.462;2023-04-04T05:30:24;5.80;40.60
75931;DHT22;64609;47.052;15.462;2023-04-04T05:32:50;5.80;40.70
75931;DHT22;64609;47.052;15.462;2023-04-04T05:35:17;5.80;40.50
75931;DHT22;64609;47.052;15.462;2023-04-04T05:37:42;5.90;40.80
75931;DHT22;64609;47.052;15.462;2023-04-04T05:40:09;5.90;40.80
75931;DHT22;64609;47.052;15.462;2023-04-04T05:42:35;6.00;40.80
75931;DHT22;64609;47.052;15.462;2023-04-04T05:45:00;6.10;40.70
75931;DHT22;64609;47.052;15.462;2023-04-04T05:47:26;6.20;40.50
75931;DHT22;64609;47.052;15.462;2023-04-04T05:49:52;6.30;40.70
75931;DHT22;64609;47.052;15.462;2023-04-04T05:52:17;6.40;40.80
75931;DHT22;64609;47.052;15.462;2023-04-04T05:54:43;6.50;40.40
75931;DHT22;64609;47.052;15.462;2023-04-04T05:57:08;6.60;40.30
75931;DHT22;64609;47.052;15.462;2023-04-04T05:59:34;6.70;40.10
75931;DHT22;64609;47.052;15.462;2023-04-04T06:02:01;6.90;39.50
75931;DHT22;64609;47.052;15.462;2023-04-04T06:04:27;7.00;38.50
75931;DHT22;64609;47.052;15.462;2023-04-04T06:06:52;7.20;37.90
75931;DHT22;64609;47.052;15.462;2023-04-04T06:09:18;7.30;38.40
75931;DHT22;64609;47.052;15.462;2023-04-04T06:11:43;7.40;37.30
75931;DHT22;64609;47.052;15.462;2023-04-04T06:14:09;7.50;36.80
75931;DHT22;64609;47.052;15.462;2023-04-04T06:16:35;7.60;36.50
75931;DHT22;64609;47.052;15.462;2023-04-04T06:19:01;7.70;36.40
75931;DHT22;64609;47.052;15.462;2023-04-04T06:21:27;7.80;36.40
75931;DHT22;64609;47.052;15.462;2023-04-04T06:23:52;7.90;35.80
75931;DHT22;64609;47.052;15.462;2023-04-04T06:26:18;8.00;35.20
75931;DHT22;64609;47.052;15.462;2023-04-04T06:28:48;8.10;35.50
75931;DHT22;64609;47.052;15.462;2023-04-04T06:31:14;8.20;34.70
75931;DHT22;64609;47.052;15.462;2023-04-04T06:33:40;8.40;34.10
75931;DHT22;64609;47.052;15.462;2023-04-04T06:36:06;8.50;33.60
75931;DHT22;64609;47.052;15.462;2023-04-04T06:38:32;8.50;33.60
75931;DHT22;64609;47.052;15.462;2023-04-04T06:40:58;8.60;33.50
75931;DHT22;64609;47.052;15.462;2023-04-04T06:43:24;8.70;33.30
75931;DHT22;64609;47.052;15.462;2023-04-04T06:45:50;8.80;33.00
75931;DHT22;64609;47.052;15.462;2023-04-04T06:48:15;8.90;32.80
75931;DHT22;64609;47.052;15.462;2023-04-04T06:50:41;9.00;32.50
75931;DHT22;64609;47.052;15.462;2023-04-04T06:53:07;9.10;32.70
75931;DHT22;64609;47.052;15.462;2023-04-04T06:55:33;9.10;32.60
75931;DHT22;64609;47.052;15.462;2023-04-04T06:57:59;9.20;32.60
75931;DHT22;64609;47.052;15.462;2023-04-04T07:00:25;9.30;32.00
75931;DHT22;64609;47.052;15.462;2023-04-04T07:02:57;9.30;32.10
75931;DHT22;64609;47.052;15.462;2023-04-04T07:05:23;9.40;31.90
75931;DHT22;64609;47.052;15.462;2023-04-04T07:07:52;9.50;32.00
75931;DHT22;64609;47.052;15.462;2023-04-04T07:10:24;9.60;32.60
75931;DHT22;64609;47.052;15.462;2023-04-04T07:12:50;9.70;32.40
75931;DHT22;64609;47.052;15.462;2023-04-04T07:15:16;9.90;31.10
75931;DHT22;64609;47.052;15.462;2023-04-04T07:17:42;10.00;30.70
75931;DHT22;64609;47.052;15.462;2023-04-04T07:20:08;10.10;30.10
75931;DHT22;64609;47.052;15.462;2023-04-04T07:22:37;10.10;29.80
75931;DHT22;64609;47.052;15.462;2023-04-04T07:25:04;10.20;30.00
75931;DHT22;64609;47.052;15.462;2023-04-04T07:27:30;10.30;29.70
75931;DHT22;64609;47.052;15.462;2023-04-04T07:29:56;10.30;29.60
75931;DHT22;64609;47.052;15.462;2023-04-04T07:32:22;10.50;29.40
75931;DHT22;64609;47.052;15.462;2023-04-04T07:34:48;10.50;29.60
75931;DHT22;64609;47.052;15.462;2023-04-04T07:37:14;10.60;29.70
75931;DHT22;64609;47.052;15.462;2023-04-04T07:39:40;10.80;30.10
75931;DHT22;64609;47.052;15.462;2023-04-04T07:42:06;10.90;29.10
75931;DHT22;64609;47.052;15.462;2023-04-04T07:44:32;11.10;28.70
75931;DHT22;64609;47.052;15.462;2023-04-04T07:46:58;11.20;29.10
75931;DHT22;64609;47.052;15.462;2023-04-04T07:49:23;11.40;28.40
75931;DHT22;64609;47.052;15.462;2023-04-04T07:51:49;11.40;28.20
75931;DHT22;64609;47.052;15.462;2023-04-04T07:54:15;11.60;28.20
75931;DHT22;64609;47.052;15.462;2023-04-04T07:56:40;11.70;28.40
75931;DHT22;64609;47.052;15.462;2023-04-04T07:59:06;11.90;28.90
75931;DHT22;64609;47.052;15.462;2023-04-04T08:01:32;12.00;27.60
75931;DHT22;64609;47.052;15.462;2023-04-04T08:03:57;12.10;27.80
75931;DHT22;64609;47.052;15.462;2023-04-04T08:06:23;12.20;27.70
75931;DHT22;64609;47.052;15.462;2023-04-04T08:08:49;12.10;27.90
75931;DHT22;64609;47.052;15.462;2023-04-04T08:11:16;12.20;27.20
75931;DHT22;64609;47.052;15.462;2023-04-04T08:13:42;12.40;27.10
75931;DHT22;64609;47.052;15.462;2023-04-04T08:16:08;12.40;26.40
75931;DHT22;64609;47.052;15.462;2023-04-04T08:18:34;12.40;26.80
75931;DHT22;64609;47.052;15.462;2023-04-04T08:20:59;12.50;27.00
75931;DHT22;64609;47.052;15.462;2023-04-04T08:23:25;12.60;26.80
75931;DHT22;64609;47.052;15.462;2023-04-04T08:25:52;12.80;27.00
75931;DHT22;64609;47.052;15.462;2023-04-04T08:28:18;12.90;26.40
75931;DHT22;64609;47.052;15.462;2023-04-04T08:30:43;13.00;26.10
75931;DHT22;64609;47.052;15.462;2023-04-04T08:33:09;13.10;26.10
75931;DHT22;64609;47.052;15.462;2023-04-04T08:35:35;13.30;26.30
75931;DHT22;64609;47.052;15.462;2023-04-04T08:38:01;13.30;26.10
75931;DHT22;64609;47.052;15.462;2023-04-04T08:40:30;13.50;26.40
75931;DHT22;64609;47.052;15.462;2023-04-04T08:42:58;13.50;25.80
75931;DHT22;64609;47.052;15.462;2023-04-04T08:45:25;13.70;26.10
75931;DHT22;64609;47.052;15.462;2023-04-04T08:47:53;13.90;25.90
75931;DHT22;64609;47.052;15.462;2023-04-04T08:50:19;14.00;25.80
75931;DHT22;64609;47.052;15.462;2023-04-04T08:52:46;14.10;25.60
75931;DHT22;64609;47.052;15.462;2023-04-04T08:55:12;14.30;25.40
75931;DHT22;64609;47.052;15.462;2023-04-04T08:57:38;14.30;25.00
75931;DHT22;64609;47.052;15.462;2023-04-04T09:00:05;14.40;25.30
75931;DHT22;64609;47.052;15.462;2023-04-04T09:03:47;14.50;25.00
75931;DHT22;64609;47.052;15.462;2023-04-04T09:05:43;14.60;24.50
75931;DHT22;64609;47.052;15.462;2023-04-04T09:08:10;14.60;24.70
75931;DHT22;64609;47.052;15.462;2023-04-04T09:10:37;14.70;24.90
75931;DHT22;64609;47.052;15.462;2023-04-04T09:13:03;14.90;24.90
75931;DHT22;64609;47.052;15.462;2023-04-04T09:15:30;15.00;24.10
75931;DHT22;64609;47.052;15.462;2023-04-04T09:17:56;15.20;24.70
75931;DHT22;64609;47.052;15.462;2023-04-04T09:20:38;15.30;24.70
75931;DHT22;64609;47.052;15.462;2023-04-04T09:23:15;15.50;24.40
75931;DHT22;64609;47.052;15.462;2023-04-04T09:25:49;15.50;23.90
75931;DHT22;64609;47.052;15.462;2023-04-04T09:28:16;15.60;23.50
75931;DHT22;64609;47.052;15.462;2023-04-04T09:30:42;15.50;23.50
75931;DHT22;64609;47.052;15.462;2023-04-04T09:33:11;15.60;23.40
75931;DHT22;64609;47.052;15.462;2023-04-04T09:35:38;15.70;23.00
75931;DHT22;64609;47.052;15.462;2023-04-04T09:38:06;15.70;23.00
75931;DHT22;64609;47.052;15.462;2023-04-04T09:40:34;15.80;23.20
75931;DHT22;64609;47.052;15.462;2023-04-04T09:43:01;16.00;23.50
75931;DHT22;64609;47.052;15.462;2023-04-04T09:45:30;16.10;23.00
75931;DHT22;64609;47.052;15.462;2023-04-04T09:47:56;16.30;23.40
75931;DHT22;64609;47.052;15.462;2023-04-04T09:50:24;16.50;23.10
75931;DHT22;64609;47.052;15.462;2023-04-04T09:52:50;16.50;22.60
75931;DHT22;64609;47.052;15.462;2023-04-04T09:55:17;16.60;22.70
75931;DHT22;64609;47.052;15.462;2023-04-04T09:57:45;16.70;22.80
75931;DHT22;64609;47.052;15.462;2023-04-04T10:00:11;16.80;22.80
75931;DHT22;64609;47.052;15.462;2023-04-04T10:02:38;16.90;22.40
75931;DHT22;64609;47.052;15.462;2023-04-04T10:05:10;17.00;22.50
75931;DHT22;64609;47.052;15.462;2023-04-04T10:07:39;17.00;22.60
75931;DHT22;64609;47.052;15.462;2023-04-04T10:10:07;17.10;22.90
75931;DHT22;64609;47.052;15.462;2023-04-04T10:12:35;17.00;22.80
75931;DHT22;64609;47.052;15.462;2023-04-04T10:15:01;17.10;23.20
75931;DHT22;64609;47.052;15.462;2023-04-04T10:17:39;17.30;22.80
75931;DHT22;64609;47.052;15.462;2023-04-04T10:20:06;17.40;22.40
75931;DHT22;64609;47.052;15.462;2023-04-04T10:22:34;17.50;22.60
75931;DHT22;64609;47.052;15.462;2023-04-04T10:25:01;17.40;21.90
75931;DHT22;64609;47.052;15.462;2023-04-04T10:27:27;17.50;22.00
75931;DHT22;64609;47.052;15.462;2023-04-04T10:29:52;17.50;21.40
75931;DHT22;64609;47.052;15.462;2023-04-04T10:35:08;17.80;22.10
75931;DHT22;64609;47.052;15.462;2023-04-04T10:37:53;18.10;22.50
75931;DHT22;64609;47.052;15.462;2023-04-04T10:40:24;18.40;22.00
75931;DHT22;64609;47.052;15.462;2023-04-04T10:42:52;18.70;21.80
75931;DHT22;64609;47.052;15.462;2023-04-04T10:45:20;19.00;21.70
75931;DHT22;64609;47.052;15.462;2023-04-04T10:47:46;19.10;21.40
75931;DHT22;64609;47.052;15.462;2023-04-04T10:50:12;19.30;22.10
75931;DHT22;64609;47.052;15.462;2023-04-04T10:52:42;19.30;21.70
75931;DHT22;64609;47.052;15.462;2023-04-04T10:55:11;19.50;21.30
75931;DHT22;64609;47.052;15.462;2023-04-04T10:57:45;19.80;21.80
75931;DHT22;64609;47.052;15.462;2023-04-04T11:00:13;19.70;20.80
75931;DHT22;64609;47.052;15.462;2023-04-04T11:02:54;20.10;21.00
75931;DHT22;64609;47.052;15.462;2023-04-04T11:07:53;20.50;20.40
75931;DHT22;64609;47.052;15.462;2023-04-04T11:10:22;20.70;20.80
75931;DHT22;64609;47.052;15.462;2023-04-04T11:12:52;20.80;20.60
75931;DHT22;64609;47.052;15.462;2023-04-04T11:15:23;21.10;20.00
75931;DHT22;64609;47.052;15.462;2023-04-04T11:18:04;21.00;20.30
75931;DHT22;64609;47.052;15.462;2023-04-04T11:23:24;21.00;20.10
75931;DHT22;64609;47.052;15.462;2023-04-04T11:25:55;20.70;19.70
75931;DHT22;64609;47.052;15.462;2023-04-04T11:39:21;20.30;20.20
75931;DHT22;64609;47.052;15.462;2023-04-04T11:44:39;20.30;20.60
75931;DHT22;64609;47.052;15.462;2023-04-04T11:49:45;20.40;20.40
75931;DHT22;64609;47.052;15.462;2023-04-04T11:52:15;20.40;19.90
75931;DHT22;64609;47.052;15.462;2023-04-04T11:54:43;20.30;20.50
75931;DHT22;64609;47.052;15.462;2023-04-04T11:57:14;20.50;20.10
75931;DHT22;64609;47.052;15.462;2023-04-04T11:59:45;20.60;20.20
75931;DHT22;64609;47.052;15.462;2023-04-04T12:02:14;20.70;19.40
75931;DHT22;64609;47.052;15.462;2023-04-04T12:04:41;20.60;19.80
75931;DHT22;64609;47.052;15.462;2023-04-04T12:07:10;20.60;20.10
75931;DHT22;64609;47.052;15.462;2023-04-04T12:09:37;20.60;20.30
75931;DHT22;64609;47.052;15.462;2023-04-04T12:12:03;20.60;20.30
75931;DHT22;64609;47.052;15.462;2023-04-04T12:14:32;20.60;19.90
75931;DHT22;64609;47.052;15.462;2023-04-04T12:16:58;20.50;19.80
75931;DHT22;64609;47.052;15.462;2023-04-04T12:19:28;20.60;19.90
75931;DHT22;64609;47.052;15.462;2023-04-04T12:21:56;20.60;19.60
75931;DHT22;64609;47.052;15.462;2023-04-04T12:24:22;20.60;19.40
75931;DHT22;64609;47.052;15.462;2023-04-04T12:26:50;20.40;19.30
75931;DHT22;64609;47.052;15.462;2023-04-04T12:29:16;20.50;19.80
75931;DHT22;64609;47.052;15.462;2023-04-04T12:31:44;20.60;19.80
75931;DHT22;64609;47.052;15.462;2023-04-04T12:34:17;20.80;19.90
75931;DHT22;64609;47.052;15.462;2023-04-04T12:36:46;20.80;19.40
75931;DHT22;64609;47.052;15.462;2023-04-04T12:39:14;20.80;19.80
75931;DHT22;64609;47.052;15.462;2023-04-04T12:41:51;20.80;19.90
75931;DHT22;64609;47.052;15.462;2023-04-04T12:44:37;20.70;19.40
75931;DHT22;64609;47.052;15.462;2023-04-04T12:47:06;20.50;19.40
75931;DHT22;64609;47.052;15.462;2023-04-04T12:49:38;20.50;19.50
75931;DHT22;64609;47.052;15.462;2023-04-04T12:52:05;20.50;20.10
75931;DHT22;64609;47.052;15.462;2023-04-04T12:54:38;20.50;21.10
75931;DHT22;64609;47.052;15.462;2023-04-04T12:57:05;20.40;19.80
75931;DHT22;64609;47.052;15.462;2023-04-04T12:59:34;20.50;20.10
75931;DHT22;64609;47.052;15.462;2023-04-04T13:02:06;20.40;20.00
75931;DHT22;64609;47.052;15.462;2023-04-04T13:04:33;20.40;20.20
75931;DHT22;64609;47.052;15.462;2023-04-04T13:06:59;20.50;19.80
75931;DHT22;64609;47.052;15.462;2023-04-04T13:09:26;20.30;20.10
75931;DHT22;64609;47.052;15.462;2023-04-04T13:12:05;20.20;19.90
75931;DHT22;64609;47.052;15.462;2023-04-04T13:15:02;20.20;19.70
75931;DHT22;64609;47.052;15.462;2023-04-04T13:17:47;20.00;19.80
75931;DHT22;64609;47.052;15.462;2023-04-04T13:20:15;19.80;19.80
75931;DHT22;64609;47.052;15.462;2023-04-04T13:22:42;19.60;19.80
75931;DHT22;64609;47.052;15.462;2023-04-04T13:25:09;19.30;20.00
75931;DHT22;64609;47.052;15.462;2023-04-04T13:27:36;19.10;19.80
75931;DHT22;64609;47.052;15.462;2023-04-04T13:30:02;19.10;20.40
75931;DHT22;64609;47.052;15.462;2023-04-04T13:32:28;18.90;20.00
75931;DHT22;64609;47.052;15.462;2023-04-04T13:34:54;18.70;20.20
75931;DHT22;64609;47.052;15.462;2023-04-04T13:37:20;18.50;20.00
75931;DHT22;64609;47.052;15.462;2023-04-04T13:39:45;18.30;20.60
75931;DHT22;64609;47.052;15.462;2023-04-04T13:42:12;18.30;20.70
75931;DHT22;64609;47.052;15.462;2023-04-04T13:44:37;18.20;20.20
75931;DHT22;64609;47.052;15.462;2023-04-04T13:47:03;18.10;20.20
75931;DHT22;64609;47.052;15.462;2023-04-04T13:49:29;18.10;20.30
75931;DHT22;64609;47.052;15.462;2023-04-04T13:51:55;18.00;20.30
75931;DHT22;64609;47.052;15.462;2023-04-04T13:54:20;17.90;20.40
75931;DHT22;64609;47.052;15.462;2023-04-04T13:56:46;17.80;20.70
75931;DHT22;64609;47.052;15.462;2023-04-04T13:59:12;17.70;20.60
75931;DHT22;64609;47.052;15.462;2023-04-04T14:01:39;17.70;20.60
75931;DHT22;64609;47.052;15.462;2023-04-04T14:04:05;17.70;20.70
75931;DHT22;64609;47.052;15.462;2023-04-04T14:06:31;17.60;21.20
75931;DHT22;64609;47.052;15.462;2023-04-04T14:08:56;17.70;21.20
75931;DHT22;64609;47.052;15.462;2023-04-04T14:11:22;17.60;20.60
75931;DHT22;64609;47.052;15.462;2023-04-04T14:13:50;17.50;20.90
75931;DHT22;64609;47.052;15.462;2023-04-04T14:16:16;17.40;20.50
75931;DHT22;64609;47.052;15.462;2023-04-04T14:18:42;17.40;20.90
75931;DHT22;64609;47.052;15.462;2023-04-04T14:21:08;17.40;20.60
75931;DHT22;64609;47.052;15.462;2023-04-04T14:23:34;17.30;20.70
75931;DHT22;64609;47.052;15.462;2023-04-04T14:26:00;17.40;20.90
75931;DHT22;64609;47.052;15.462;2023-04-04T14:28:26;17.40;21.20
75931;DHT22;64609;47.052;15.462;2023-04-04T14:30:52;17.40;21.10
75931;DHT22;64609;47.052;15.462;2023-04-04T14:33:18;17.40;21.00
75931;DHT22;64609;47.052;15.462;2023-04-04T14:35:44;17.40;21.20
75931;DHT22;64609;47.052;15.462;2023-04-04T14:38:09;17.20;20.80
75931;DHT22;64609;47.052;15.462;2023-04-04T14:40:35;17.10;20.70
75931;DHT22;64609;47.052;15.462;2023-04-04T14:43:01;17.10;20.90
75931;DHT22;64609;47.052;15.462;2023-04-04T14:45:27;17.10;20.70
75931;DHT22;64609;47.052;15.462;2023-04-04T14:47:56;17.10;20.40
75931;DHT22;64609;47.052;15.462;2023-04-04T14:50:22;16.80;20.60
75931;DHT22;64609;47.052;15.462;2023-04-04T14:52:48;16.80;20.90
75931;DHT22;64609;47.052;15.462;2023-04-04T14:55:18;16.70;20.70
75931;DHT22;64609;47.052;15.462;2023-04-04T14:57:43;16.60;20.80
75931;DHT22;64609;47.052;15.462;2023-04-04T15:00:13;16.50;20.80
75931;DHT22;64609;47.052;15.462;2023-04-04T15:02:40;16.30;20.80
75931;DHT22;64609;47.052;15.462;2023-04-04T15:05:07;16.20;21.00
75931;DHT22;64609;47.052;15.462;2023-04-04T15:07:35;16.30;21.30
75931;DHT22;64609;47.052;15.462;2023-04-04T15:10:00;16.30;21.10
75931;DHT22;64609;47.052;15.462;2023-04-04T15:12:26;16.30;21.10
75931;DHT22;64609;47.052;15.462;2023-04-04T15:14:52;16.30;21.50
75931;DHT22;64609;47.052;15.462;2023-04-04T15:17:17;16.30;21.40
75931;DHT22;64609;47.052;15.462;2023-04-04T15:19:43;16.40;21.30
75931;DHT22;64609;47.052;15.462;2023-04-04T15:22:08;16.40;21.40
75931;DHT22;64609;47.052;15.462;2023-04-04T15:24:34;16.40;21.50
75931;DHT22;64609;47.052;15.462;2023-04-04T15:27:00;16.30;21.50
75931;DHT22;64609;47.052;15.462;2023-04-04T15:29:25;16.30;21.50
75931;DHT22;64609;47.052;15.462;2023-04-04T15:31:51;16.30;21.50
75931;DHT22;64609;47.052;15.462;2023-04-04T15:34:17;16.20;21.80
75931;DHT22;64609;47.052;15.462;2023-04-04T15:36:42;16.20;21.60
75931;DHT22;64609;47.052;15.462;2023-04-04T15:39:08;16.20;21.70
75931;DHT22;64609;47.052;15.462;2023-04-04T15:41:36;16.30;21.80
75931;DHT22;64609;47.052;15.462;2023-04-04T15:44:02;16.20;21.80
75931;DHT22;64609;47.052;15.462;2023-04-04T15:46:29;16.20;21.70